createdAt,value
2017-11-26T00:02:10.008Z,7.83
2017-11-26T00:04:36.428Z,7.00
2017-11-26T00:07:02.685Z,7.77
2017-11-26T00:09:28.967Z,7.63
2017-11-26T00:11:55.273Z,6.57
2017-11-26T00:14:22.301Z,7.87
2017-11-26T00:16:48.659Z,7.50
2017-11-26T00:19:15.689Z,7.10
2017-11-26T00:21:42.014Z,7.40
2017-11-26T00:24:08.300Z,8.27
2017-11-26T00:26:34.774Z,7.03
2017-11-26T00:29:01.063Z,6.27
2017-11-26T00:31:27.344Z,5.53
2017-11-26T00:33:53.636Z,6.10
2017-11-26T00:36:19.939Z,6.93
2017-11-26T00:38:46.209Z,5.60
2017-11-26T00:41:12.509Z,5.20
2017-11-26T00:43:38.825Z,5.60
2017-11-26T00:46:05.113Z,5.97
2017-11-26T00:48:31.448Z,4.90
2017-11-26T00:50:57.721Z,3.67
2017-11-26T00:53:24.041Z,5.77
2017-11-26T00:55:50.326Z,4.70
2017-11-26T00:58:18.253Z,5.00
2017-11-26T01:00:44.713Z,4.87
2017-11-26T01:03:11.154Z,5.87
2017-11-26T01:05:37.461Z,5.23
2017-11-26T01:08:03.792Z,5.93
2017-11-26T01:10:30.098Z,5.10
2017-11-26T01:12:56.400Z,5.80
2017-11-26T01:15:23.450Z,6.13
2017-11-26T01:17:50.492Z,6.33
2017-11-26T01:20:17.530Z,5.37
2017-11-26T01:22:43.815Z,5.93
2017-11-26T01:25:10.116Z,5.90
2017-11-26T01:27:36.405Z,6.57
2017-11-26T01:30:02.725Z,5.97
2017-11-26T01:32:29.025Z,6.00
2017-11-26T01:34:55.348Z,6.07
2017-11-26T01:37:21.615Z,7.83
2017-11-26T01:39:47.921Z,6.47
2017-11-26T01:42:14.233Z,6.97
2017-11-26T01:44:40.537Z,7.57
2017-11-26T01:47:07.584Z,6.87
2017-11-26T01:49:35.069Z,7.00
2017-11-26T01:52:01.349Z,6.40
2017-11-26T01:54:27.615Z,7.33
2017-11-26T01:56:53.930Z,6.97
2017-11-26T01:59:20.966Z,6.47
2017-11-26T02:01:47.241Z,7.03
2017-11-26T02:04:13.555Z,5.97
2017-11-26T02:06:39.977Z,6.93
2017-11-26T02:09:07.070Z,7.60
2017-11-26T02:11:33.340Z,6.30
2017-11-26T02:14:00.482Z,6.17
2017-11-26T02:16:28.259Z,7.07
2017-11-26T02:18:55.310Z,7.33
2017-11-26T02:21:22.325Z,6.90
2017-11-26T02:23:50.345Z,7.20
2017-11-26T02:26:16.655Z,8.10
2017-11-26T02:28:43.709Z,6.43
2017-11-26T02:31:23.005Z,6.20
2017-11-26T02:34:01.690Z,6.07
2017-11-26T02:36:27.961Z,5.83
2017-11-26T02:38:54.353Z,6.10
2017-11-26T02:41:20.816Z,6.67
2017-11-26T02:43:47.152Z,6.60
2017-11-26T02:46:13.423Z,5.97
2017-11-26T02:48:39.685Z,5.00
2017-11-26T02:51:06.007Z,6.13
2017-11-26T02:53:32.282Z,5.83
2017-11-26T02:55:58.574Z,5.60
2017-11-26T02:58:24.861Z,5.07
2017-11-26T03:00:51.883Z,6.07
2017-11-26T03:03:18.192Z,4.47
2017-11-26T03:05:44.551Z,4.63
2017-11-26T03:08:10.829Z,4.53
2017-11-26T03:10:37.121Z,4.70
2017-11-26T03:13:04.162Z,4.23
2017-11-26T03:15:31.167Z,4.77
2017-11-26T03:17:57.452Z,4.60
2017-11-26T03:20:24.557Z,4.13
2017-11-26T03:22:50.847Z,4.67
2017-11-26T03:25:17.185Z,4.00
2017-11-26T03:27:43.454Z,3.63
2017-11-26T03:30:09.734Z,4.40
2017-11-26T03:32:36.028Z,3.90
2017-11-26T03:35:02.314Z,4.30
2017-11-26T03:37:28.638Z,4.30
2017-11-26T03:39:55.102Z,4.23
2017-11-26T03:42:22.129Z,4.47
2017-11-26T03:44:48.523Z,4.00
2017-11-26T03:47:14.813Z,4.43
2017-11-26T03:49:41.125Z,3.80
2017-11-26T03:52:07.397Z,4.07
2017-11-26T03:54:34.441Z,3.87
2017-11-26T03:57:01.445Z,4.10
2017-11-26T03:59:27.733Z,3.90
2017-11-26T04:01:54.006Z,3.97
2017-11-26T04:04:20.285Z,4.00
2017-11-26T04:06:47.284Z,4.50
2017-11-26T04:09:13.554Z,5.93
2017-11-26T04:11:40.760Z,4.23
2017-11-26T04:14:07.035Z,3.97
2017-11-26T04:16:33.462Z,4.13
2017-11-26T04:18:59.761Z,3.90
2017-11-26T04:21:26.041Z,3.70
2017-11-26T04:23:53.048Z,4.20
2017-11-26T04:26:19.353Z,3.97
2017-11-26T04:28:45.622Z,3.90
2017-11-26T04:31:13.652Z,4.30
2017-11-26T04:33:39.943Z,4.27
2017-11-26T04:36:06.223Z,4.33
2017-11-26T04:38:32.562Z,4.70
2017-11-26T04:40:58.826Z,4.20
2017-11-26T04:43:25.861Z,3.93
2017-11-26T04:45:52.160Z,3.87
2017-11-26T04:48:18.449Z,4.23
2017-11-26T04:50:44.721Z,4.20
2017-11-26T04:53:11.025Z,4.50
2017-11-26T04:55:37.302Z,3.90
2017-11-26T04:58:03.597Z,4.00
2017-11-26T05:00:29.986Z,3.93
2017-11-26T05:02:56.246Z,4.77
2017-11-26T05:05:22.496Z,4.30
2017-11-26T05:07:48.762Z,5.53
2017-11-26T05:10:15.779Z,5.33
2017-11-26T05:12:42.064Z,3.83
2017-11-26T05:15:08.342Z,4.40
2017-11-26T05:17:34.629Z,4.07
2017-11-26T05:20:01.078Z,3.80
2017-11-26T05:22:28.049Z,5.07
2017-11-26T05:24:54.395Z,4.60
2017-11-26T05:27:20.701Z,3.90
2017-11-26T05:29:47.013Z,4.73
2017-11-26T05:32:13.310Z,3.83
2017-11-26T05:34:39.592Z,3.90
2017-11-26T05:37:05.874Z,4.07
2017-11-26T05:39:32.156Z,4.80
2017-11-26T05:41:58.445Z,3.63
2017-11-26T05:44:24.732Z,4.70
2017-11-26T05:46:51.770Z,4.17
2017-11-26T05:49:18.084Z,3.93
2017-11-26T05:51:44.449Z,4.10
2017-11-26T05:54:11.444Z,3.50
2017-11-26T05:56:37.742Z,4.73
2017-11-26T05:59:04.607Z,5.13
2017-11-26T06:01:30.933Z,4.37
2017-11-26T06:03:57.208Z,4.33
2017-11-26T06:06:23.482Z,3.83
2017-11-26T06:08:49.742Z,3.50
2017-11-26T06:11:16.014Z,4.10
2017-11-26T06:13:43.080Z,3.70
2017-11-26T06:16:09.346Z,4.00
2017-11-26T06:18:35.637Z,3.47
2017-11-26T06:21:01.923Z,4.57
2017-11-26T06:23:28.401Z,3.90
2017-11-26T06:25:54.722Z,4.20
2017-11-26T06:28:21.744Z,4.47
2017-11-26T06:30:48.051Z,4.10
2017-11-26T06:33:14.322Z,4.20
2017-11-26T06:35:41.358Z,4.03
2017-11-26T06:38:08.405Z,4.77
2017-11-26T06:40:35.434Z,4.33
2017-11-26T06:43:03.213Z,4.70
2017-11-26T06:45:30.286Z,4.70
2017-11-26T06:47:56.548Z,4.37
2017-11-26T06:50:22.864Z,4.10
2017-11-26T06:52:49.165Z,3.97
2017-11-26T06:55:16.415Z,4.43
2017-11-26T06:57:43.438Z,4.47
2017-11-26T07:00:09.776Z,4.13
2017-11-26T07:02:36.042Z,4.40
2017-11-26T07:05:02.354Z,4.40
2017-11-26T07:07:28.654Z,4.53
2017-11-26T07:09:55.694Z,4.67
2017-11-26T07:12:22.025Z,6.00
2017-11-26T07:14:48.349Z,5.10
2017-11-26T07:17:14.789Z,3.90
2017-11-26T07:19:41.846Z,5.10
2017-11-26T07:22:08.155Z,5.40
2017-11-26T07:24:34.474Z,4.30
2017-11-26T07:27:00.962Z,5.73
2017-11-26T07:29:27.983Z,4.50
2017-11-26T07:31:54.298Z,4.60
2017-11-26T07:34:20.724Z,5.10
2017-11-26T07:36:47.048Z,4.50
2017-11-26T07:39:13.428Z,4.63
2017-11-26T07:41:40.737Z,4.40
2017-11-26T07:44:07.062Z,4.87
2017-11-26T07:46:33.388Z,5.10
2017-11-26T07:48:59.694Z,4.47
2017-11-26T07:51:26.006Z,4.20
2017-11-26T07:53:53.145Z,3.50
2017-11-26T07:56:20.208Z,3.97
2017-11-26T07:58:46.507Z,4.13
2017-11-26T08:01:12.790Z,3.50
2017-11-26T08:03:39.115Z,3.57
2017-11-26T08:06:05.376Z,4.00
2017-11-26T08:08:31.649Z,3.63
2017-11-26T08:10:58.764Z,3.40
2017-11-26T08:13:25.100Z,3.87
2017-11-26T08:15:52.146Z,3.50
2017-11-26T08:18:18.446Z,3.50
2017-11-26T08:20:44.980Z,3.40
2017-11-26T08:23:11.263Z,3.57
2017-11-26T08:25:38.446Z,3.40
2017-11-26T08:28:05.071Z,3.53
2017-11-26T08:30:31.383Z,3.70
2017-11-26T08:32:58.421Z,3.30
2017-11-26T08:35:24.750Z,3.80
2017-11-26T08:37:51.865Z,3.70
2017-11-26T08:40:18.178Z,3.97
2017-11-26T08:42:44.506Z,3.97
2017-11-26T08:45:11.020Z,3.77
2017-11-26T08:47:37.317Z,3.47
2017-11-26T08:50:03.589Z,3.23
2017-11-26T08:52:29.864Z,3.10
2017-11-26T08:54:56.149Z,2.83
2017-11-26T08:57:22.625Z,4.97
2017-11-26T08:59:48.995Z,3.73
2017-11-26T09:02:16.047Z,3.07
2017-11-26T09:04:43.114Z,3.83
2017-11-26T09:10:15.189Z,3.37
2017-11-26T09:12:41.506Z,3.90
2017-11-26T09:15:08.571Z,2.97
2017-11-26T09:17:34.898Z,3.40
2017-11-26T09:20:01.357Z,3.60
2017-11-26T09:22:27.718Z,3.90
2017-11-26T09:24:53.984Z,3.50
2017-11-26T09:27:20.274Z,4.10
2017-11-26T09:29:46.605Z,4.87
2017-11-26T09:32:12.889Z,3.77
2017-11-26T09:34:39.179Z,3.80
2017-11-26T09:37:05.447Z,4.43
2017-11-26T09:39:31.744Z,3.43
2017-11-26T09:41:58.769Z,3.77
2017-11-26T09:44:25.065Z,4.37
2017-11-26T09:46:51.373Z,3.70
2017-11-26T09:49:17.647Z,4.17
2017-11-26T09:51:43.982Z,4.70
2017-11-26T09:54:10.289Z,4.00
2017-11-26T09:56:36.622Z,3.63
2017-11-26T09:59:02.984Z,3.30
2017-11-26T10:01:29.306Z,3.57
2017-11-26T10:03:55.594Z,3.33
2017-11-26T10:06:21.897Z,3.73
2017-11-26T10:08:48.999Z,3.60
2017-11-26T10:11:15.341Z,3.40
2017-11-26T10:13:41.626Z,3.10
2017-11-26T10:16:07.981Z,3.33
2017-11-26T10:18:34.245Z,3.63
2017-11-26T10:21:00.779Z,3.07
2017-11-26T10:23:27.066Z,3.30
2017-11-26T10:25:53.361Z,3.83
2017-11-26T10:28:20.401Z,2.97
2017-11-26T10:30:47.470Z,3.37
2017-11-26T10:33:13.786Z,2.67
2017-11-26T10:35:41.058Z,3.53
2017-11-26T10:38:07.617Z,3.07
2017-11-26T10:40:34.151Z,3.70
2017-11-26T10:43:00.506Z,3.20
2017-11-26T10:45:26.802Z,3.10
2017-11-26T10:47:53.139Z,3.40
2017-11-26T10:50:19.622Z,3.50
2017-11-26T10:52:46.901Z,3.07
2017-11-26T10:55:13.190Z,3.53
2017-11-26T10:57:39.489Z,3.40
2017-11-26T11:00:07.703Z,3.20
2017-11-26T11:02:34.753Z,3.83
2017-11-26T11:05:01.823Z,4.10
2017-11-26T11:07:28.189Z,3.20
2017-11-26T11:09:54.659Z,3.90
2017-11-26T11:12:20.959Z,3.20
2017-11-26T11:14:47.265Z,3.60
2017-11-26T11:17:13.567Z,3.27
2017-11-26T11:19:40.724Z,3.00
2017-11-26T11:22:07.822Z,3.60
2017-11-26T11:24:34.268Z,2.83
2017-11-26T11:27:00.621Z,2.60
2017-11-26T11:29:27.733Z,3.07
2017-11-26T11:31:54.122Z,3.00
2017-11-26T11:34:20.426Z,3.50
2017-11-26T11:36:47.559Z,3.58
2017-11-26T11:39:14.039Z,3.28
2017-11-26T11:41:40.381Z,3.60
2017-11-26T11:44:06.713Z,3.30
2017-11-26T11:46:32.999Z,3.43
2017-11-26T11:49:00.071Z,2.97
2017-11-26T11:51:26.492Z,2.58
2017-11-26T11:53:54.963Z,3.10
2017-11-26T11:56:23.080Z,2.97
2017-11-26T11:58:49.393Z,3.40
2017-11-26T12:01:15.892Z,2.80
2017-11-26T12:03:42.277Z,2.70
2017-11-26T12:06:08.570Z,2.30
2017-11-26T12:08:35.598Z,2.80
2017-11-26T12:11:01.920Z,2.70
2017-11-26T12:13:28.229Z,1.77
2017-11-26T12:15:54.600Z,2.53
2017-11-26T12:18:21.657Z,2.23
2017-11-26T12:20:48.761Z,3.40
2017-11-26T12:23:15.051Z,2.03
2017-11-26T12:25:41.373Z,2.27
2017-11-26T12:28:07.672Z,2.83
2017-11-26T12:30:33.997Z,2.33
2017-11-26T12:33:01.208Z,2.40
2017-11-26T12:35:29.638Z,2.30
2017-11-26T12:37:55.979Z,2.20
2017-11-26T12:40:23.169Z,2.23
2017-11-26T12:42:49.487Z,2.33
2017-11-26T12:45:15.797Z,2.70
2017-11-26T12:47:42.845Z,2.10
2017-11-26T12:50:09.938Z,2.47
2017-11-26T12:52:36.245Z,2.70
2017-11-26T12:55:02.901Z,2.30
2017-11-26T12:57:29.208Z,2.70
2017-11-26T12:59:55.535Z,2.40
2017-11-26T13:02:21.818Z,2.97
2017-11-26T13:04:48.327Z,3.27
2017-11-26T13:07:14.642Z,2.30
2017-11-26T13:09:40.968Z,2.70
2017-11-26T13:12:07.269Z,2.67
2017-11-26T13:14:34.462Z,2.40
2017-11-26T13:17:00.737Z,2.67
2017-11-26T13:19:28.065Z,2.60
2017-11-26T13:21:54.458Z,2.33
2017-11-26T13:24:20.790Z,2.70
2017-11-26T13:26:54.974Z,2.67
2017-11-26T13:29:22.052Z,2.90
2017-11-26T13:31:48.299Z,2.30
2017-11-26T13:34:14.734Z,2.73
2017-11-26T13:36:41.234Z,3.00
2017-11-26T13:39:07.530Z,2.50
2017-11-26T13:41:33.842Z,2.87
2017-11-26T13:44:00.219Z,3.00
2017-11-26T13:46:26.588Z,2.23
2017-11-26T13:48:52.898Z,2.47
2017-11-26T13:51:19.195Z,3.07
2017-11-26T13:53:46.224Z,3.17
2017-11-26T13:56:12.640Z,3.10
2017-11-26T13:58:38.971Z,2.90
2017-11-26T14:01:05.689Z,3.27
2017-11-26T14:03:32.019Z,2.37
2017-11-26T14:05:58.371Z,2.60
2017-11-26T14:08:24.788Z,2.80
2017-11-26T14:10:51.121Z,3.13
2017-11-26T14:13:17.436Z,2.40
2017-11-26T14:15:43.770Z,2.87
2017-11-26T14:18:10.095Z,3.17
2017-11-26T14:20:36.621Z,3.00
2017-11-26T14:23:02.963Z,2.80
2017-11-26T14:25:29.263Z,2.33
2017-11-26T14:27:56.304Z,2.03
2017-11-26T14:30:23.395Z,2.37
2017-11-26T14:32:49.674Z,2.63
2017-11-26T14:35:16.047Z,2.73
2017-11-26T14:37:42.763Z,3.43
2017-11-26T14:40:09.811Z,2.57
2017-11-26T14:42:36.917Z,2.13
2017-11-26T14:45:03.233Z,2.00
2017-11-26T14:47:29.544Z,2.60
2017-11-26T14:49:55.893Z,2.50
2017-11-26T14:52:22.185Z,2.50
2017-11-26T14:54:49.223Z,2.00
2017-11-26T14:57:16.682Z,2.40
2017-11-26T14:59:43.273Z,2.30
2017-11-26T15:02:09.589Z,3.00
2017-11-26T15:04:35.891Z,2.50
2017-11-26T15:07:02.212Z,3.27
2017-11-26T15:09:29.143Z,2.33
2017-11-26T15:11:55.523Z,2.73
2017-11-26T15:14:21.856Z,2.30
2017-11-26T15:16:48.222Z,3.00
2017-11-26T15:19:15.331Z,2.50
2017-11-26T15:21:41.655Z,2.87
2017-11-26T15:24:08.085Z,2.80
2017-11-26T15:26:35.011Z,2.70
2017-11-26T15:29:01.505Z,3.00
2017-11-26T15:31:27.781Z,2.67
2017-11-26T15:33:54.096Z,3.00
2017-11-26T15:36:21.334Z,2.13
2017-11-26T15:38:49.428Z,2.83
2017-11-26T15:41:22.140Z,2.90
2017-11-26T15:43:48.648Z,2.37
2017-11-26T15:46:15.178Z,2.67
2017-11-26T15:48:41.440Z,3.20
2017-11-26T15:51:07.766Z,3.33
2017-11-26T15:53:34.060Z,2.50
2017-11-26T15:56:01.356Z,2.70
2017-11-26T15:58:27.651Z,2.57
2017-11-26T16:00:53.933Z,2.60
2017-11-26T16:03:20.229Z,2.70
2017-11-26T16:05:46.747Z,2.70
2017-11-26T16:10:52.628Z,2.63
2017-11-26T16:13:19.002Z,2.33
2017-11-26T16:15:46.790Z,2.50
2017-11-26T16:18:13.845Z,2.00
2017-11-26T16:20:40.990Z,2.63
2017-11-26T16:23:08.044Z,2.70
2017-11-26T16:25:35.199Z,2.70
2017-11-26T16:28:01.624Z,2.60
2017-11-26T16:30:28.750Z,2.43
2017-11-26T16:32:55.118Z,5.10
2017-11-26T16:35:21.471Z,2.10
2017-11-26T16:37:47.887Z,2.73
2017-11-26T16:40:14.272Z,2.43
2017-11-26T16:42:40.716Z,3.07
2017-11-26T16:45:07.839Z,2.40
2017-11-26T16:47:34.936Z,3.00
2017-11-26T16:50:01.970Z,2.83
2017-11-26T16:52:29.105Z,2.67
2017-11-26T16:54:56.181Z,2.90
2017-11-26T16:57:23.212Z,2.23
2017-11-26T16:59:50.261Z,3.20
2017-11-26T17:02:17.293Z,3.83
2017-11-26T17:04:43.645Z,3.07
2017-11-26T17:07:10.710Z,3.27
2017-11-26T17:09:37.008Z,3.90
2017-11-26T17:12:04.094Z,3.00
2017-11-26T17:14:30.424Z,2.63
2017-11-26T17:16:56.750Z,2.63
2017-11-26T17:19:23.062Z,2.80
2017-11-26T17:21:50.158Z,3.40
2017-11-26T17:24:16.543Z,3.00
2017-11-26T17:26:42.840Z,3.57
2017-11-26T17:29:09.256Z,3.50
2017-11-26T17:31:35.601Z,2.80
2017-11-26T17:34:01.992Z,2.83
2017-11-26T17:36:28.379Z,3.27
2017-11-26T17:38:55.475Z,2.87
2017-11-26T17:41:21.770Z,3.20
2017-11-26T17:43:48.869Z,3.57
2017-11-26T17:46:15.250Z,3.20
2017-11-26T17:48:42.359Z,3.40
2017-11-26T17:51:08.707Z,3.17
2017-11-26T17:53:35.027Z,3.50
2017-11-26T17:56:01.449Z,3.43
2017-11-26T17:58:28.107Z,3.67
2017-11-26T18:00:54.473Z,3.20
2017-11-26T18:03:21.550Z,2.70
2017-11-26T18:05:47.915Z,3.40
2017-11-26T18:08:14.349Z,3.07
2017-11-26T18:10:40.710Z,3.70
2017-11-26T18:13:07.058Z,3.57
2017-11-26T18:15:33.346Z,3.80
2017-11-26T18:17:59.637Z,3.70
2017-11-26T18:20:25.971Z,3.70
2017-11-26T18:22:52.338Z,4.10
2017-11-26T18:25:18.722Z,4.27
2017-11-26T18:27:45.051Z,4.93
2017-11-26T18:30:11.394Z,3.67
2017-11-26T18:32:37.710Z,4.03
2017-11-26T18:35:04.047Z,5.47
2017-11-26T18:37:30.406Z,4.13
2017-11-26T18:39:56.703Z,4.47
2017-11-26T18:42:23.054Z,4.10
2017-11-26T18:44:49.426Z,4.43
2017-11-26T18:47:16.520Z,5.20
2017-11-26T18:49:42.798Z,3.90
2017-11-26T18:52:09.845Z,6.10
2017-11-26T18:54:37.244Z,4.20
2017-11-26T18:57:03.537Z,4.53
2017-11-26T18:59:30.668Z,3.60
2017-11-26T19:01:57.843Z,4.30
2017-11-26T19:04:24.969Z,4.03
2017-11-26T19:06:51.263Z,4.27
2017-11-26T19:09:17.651Z,3.43
2017-11-26T19:11:44.749Z,4.00
2017-11-26T19:14:11.119Z,4.73
2017-11-26T19:16:37.430Z,3.70
2017-11-26T19:19:03.772Z,4.10
2017-11-26T19:21:30.542Z,4.30
2017-11-26T19:23:57.435Z,4.13
2017-11-26T19:26:23.766Z,4.20
2017-11-26T19:28:50.079Z,4.23
2017-11-26T19:31:16.414Z,4.73
2017-11-26T19:33:43.284Z,3.80
2017-11-26T19:45:19.707Z,4.50
2017-11-26T19:47:46.088Z,4.00
2017-11-26T19:50:13.194Z,3.20
2017-11-26T19:52:39.543Z,4.57
2017-11-26T19:55:05.929Z,3.20
2017-11-26T19:57:33.071Z,3.47
2017-11-26T20:00:00.236Z,3.87
2017-11-26T20:02:26.666Z,3.07
2017-11-26T20:04:53.228Z,3.70
2017-11-26T20:07:19.572Z,3.80
2017-11-26T20:09:45.901Z,3.60
2017-11-26T20:12:12.290Z,4.20
2017-11-26T20:14:38.787Z,3.67
2017-11-26T20:17:05.225Z,3.67
2017-11-26T20:19:32.355Z,3.43
2017-11-26T20:21:58.723Z,3.97
2017-11-26T20:24:25.780Z,4.07
2017-11-26T20:26:52.177Z,3.70
2017-11-26T20:29:18.580Z,3.90
2017-11-26T20:31:45.001Z,3.33
2017-11-26T20:34:11.474Z,3.43
2017-11-26T20:36:37.765Z,3.20
2017-11-26T20:39:04.078Z,3.03
2017-11-26T20:41:30.476Z,3.40
2017-11-26T20:43:57.765Z,2.90
2017-11-26T20:46:24.180Z,3.10
2017-11-26T20:48:50.602Z,3.03
2017-11-26T20:51:16.984Z,3.00
2017-11-26T20:53:43.449Z,3.80
2017-11-26T20:56:09.797Z,3.30
2017-11-26T20:58:37.018Z,3.30
2017-11-26T21:01:03.414Z,3.07
2017-11-26T21:03:29.808Z,3.37
2017-11-26T21:05:56.138Z,3.13
2017-11-26T21:08:23.341Z,2.90
2017-11-26T21:10:49.758Z,2.70
2017-11-26T21:13:16.155Z,2.60
2017-11-26T21:15:42.524Z,2.73
2017-11-26T21:18:08.850Z,3.07
2017-11-26T21:20:35.212Z,3.00
2017-11-26T21:23:01.659Z,4.17
2017-11-26T21:25:28.791Z,3.10
2017-11-26T21:27:55.138Z,3.10
2017-11-26T21:30:23.710Z,3.03
2017-11-26T21:32:50.860Z,2.90
2017-11-26T21:35:17.927Z,2.57
2017-11-26T21:37:45.116Z,3.30
2017-11-26T21:40:11.454Z,2.90
2017-11-26T21:42:37.888Z,4.90
2017-11-26T21:45:04.215Z,3.43
2017-11-26T21:47:30.827Z,3.20
2017-11-26T21:49:57.130Z,3.80
2017-11-26T21:52:23.548Z,3.90
2017-11-26T21:54:50.680Z,3.43
2017-11-26T21:57:17.111Z,3.30
2017-11-26T21:59:43.441Z,3.43
2017-11-26T22:02:09.838Z,4.03
2017-11-26T22:04:36.144Z,3.37
2017-11-26T22:07:02.465Z,3.80
2017-11-26T22:09:28.954Z,3.53
2017-11-26T22:11:56.038Z,3.97
2017-11-26T22:14:22.409Z,3.40
2017-11-26T22:16:48.726Z,3.10
2017-11-26T22:19:15.164Z,3.77
2017-11-26T22:21:42.502Z,4.37
2017-11-26T22:24:08.843Z,4.53
2017-11-26T22:26:36.335Z,4.00
2017-11-26T22:29:03.553Z,3.90
2017-11-26T22:31:29.922Z,4.37
2017-11-26T22:33:56.546Z,4.40
2017-11-26T22:36:22.934Z,4.27
2017-11-26T22:38:49.482Z,4.83
2017-11-26T22:41:16.028Z,4.00
2017-11-26T22:43:42.413Z,3.60
2017-11-26T22:46:09.549Z,4.03
2017-11-26T22:48:36.609Z,4.47
2017-11-26T22:51:03.138Z,4.83
2017-11-26T22:53:29.628Z,4.80
2017-11-26T22:55:56.928Z,4.00
2017-11-26T22:58:23.923Z,4.37
2017-11-26T23:00:50.535Z,4.50
2017-11-26T23:03:17.499Z,4.00
2017-11-26T23:05:44.153Z,3.97
2017-11-26T23:08:10.832Z,3.70
2017-11-26T23:10:37.205Z,4.40
2017-11-26T23:13:03.595Z,4.13
2017-11-26T23:15:30.397Z,4.60
2017-11-26T23:17:56.801Z,4.23
2017-11-26T23:20:23.113Z,4.33
2017-11-26T23:22:49.439Z,3.60
2017-11-26T23:25:15.778Z,4.10
2017-11-26T23:27:42.158Z,4.40
2017-11-26T23:30:09.226Z,4.77
2017-11-26T23:32:35.538Z,5.00
2017-11-26T23:35:02.632Z,4.50
2017-11-26T23:37:29.167Z,4.50
2017-11-26T23:39:56.531Z,4.73
2017-11-26T23:42:22.929Z,4.63
2017-11-26T23:44:49.404Z,4.83
2017-11-26T23:47:15.817Z,4.30
2017-11-26T23:49:42.270Z,4.53
2017-11-26T23:52:08.710Z,5.33
2017-11-26T23:54:35.121Z,4.97
2017-11-26T23:57:01.484Z,5.13
2017-11-26T23:59:30.472Z,5.27
